Flugplatz Soest/Bad Sassendorf

Für EDLZ sind keine METAR/TAF Berichte vorhanden.
Es werden die Flugwettermeldungen vom Flugplatz Paderborn Lippstadt in 28 km Entfernung angezeigt.

Bericht für EDLP

vom 25.01. um 23:50 UTC

Wind 2 kt aus 70°

Sichtweite 4100 m

feuchter Dunst

gering bewölkt in 100 ft

Temperatur -2.0°C

Taupunkt -2.0°C

Luftfeuchtigkeit 100%

Luftdruck 1019 hPa

EDLP 252350Z 07002KT 4100 BR FEW001 M02/M02 Q1019

Prognose für EDLP

vom 25.01. um 00:00 UTC

Zwischen 00:00 UTC und 00:00 UTC

Wind 7 kt aus 160°

Sichtweite 7000 m

aufgelockert bewölkt in 800 ft


Zwischen 00:00 UTC und 00:00 UTC zeitweise

Sichtweite 3000 m

feuchter Dunst

aufgebrochene Bewölkung in 200 ft


Zwischen 00:00 UTC und 00:00 UTC zeitweise

Wind 12 kt aus 170°

TAF COR EDLP 252350Z 2600/2624 16007KT 7000 SCT008 TEMPO 2600/2606 3000 BR BKN002 TEMPO 2618/2624 17012KT
Impressum